createdAt,value
2018-07-05T00:00:37.738Z,0
2018-07-05T00:01:38.303Z,0
2018-07-05T00:02:38.867Z,0
2018-07-05T00:03:39.425Z,0
2018-07-05T00:04:39.980Z,0
2018-07-05T00:05:40.543Z,0
2018-07-05T00:06:41.099Z,0
2018-07-05T00:07:41.654Z,0
2018-07-05T00:08:42.208Z,0
2018-07-05T00:09:42.764Z,0
2018-07-05T00:10:43.319Z,0
2018-07-05T00:11:43.876Z,0
2018-07-05T00:12:44.426Z,0
2018-07-05T00:13:44.982Z,0
2018-07-05T00:14:45.537Z,0
2018-07-05T00:15:46.095Z,0
2018-07-05T00:16:46.652Z,0
2018-07-05T00:17:47.204Z,0
2018-07-05T00:18:47.756Z,0
2018-07-05T00:19:48.309Z,0
2018-07-05T00:20:48.861Z,0
2018-07-05T00:21:49.418Z,0
2018-07-05T00:22:49.970Z,0
2018-07-05T00:23:50.521Z,0
2018-07-05T00:24:51.079Z,0
2018-07-05T00:25:51.637Z,0
2018-07-05T00:26:52.191Z,0
2018-07-05T00:27:52.749Z,0
2018-07-05T00:28:53.304Z,0
2018-07-05T00:29:53.856Z,0
2018-07-05T00:30:54.408Z,0
2018-07-05T00:31:54.961Z,0
2018-07-05T00:32:55.511Z,0
2018-07-05T00:33:56.067Z,0
2018-07-05T00:34:56.622Z,0
2018-07-05T00:35:57.178Z,0
2018-07-05T00:36:57.726Z,0
2018-07-05T00:37:58.275Z,0
2018-07-05T00:38:58.831Z,0
2018-07-05T00:39:59.391Z,0
2018-07-05T00:40:59.948Z,0
2018-07-05T00:42:00.506Z,0
2018-07-05T00:43:01.062Z,0
2018-07-05T00:44:01.618Z,0
2018-07-05T00:45:02.174Z,0
2018-07-05T00:46:02.730Z,0
2018-07-05T00:47:03.286Z,0
2018-07-05T00:48:03.831Z,0
2018-07-05T00:49:04.406Z,0
2018-07-05T00:50:04.947Z,0
2018-07-05T00:51:05.497Z,0
2018-07-05T00:52:06.053Z,0
2018-07-05T00:53:06.610Z,0
2018-07-05T00:54:07.158Z,0
2018-07-05T00:55:07.713Z,0
2018-07-05T00:56:08.268Z,0
2018-07-05T00:57:08.821Z,0
2018-07-05T00:58:09.370Z,0
2018-07-05T00:59:09.917Z,0
2018-07-05T01:00:10.474Z,0
2018-07-05T01:01:11.029Z,0
2018-07-05T01:02:11.584Z,0
2018-07-05T01:03:12.131Z,0
2018-07-05T01:04:12.680Z,0
2018-07-05T01:05:13.234Z,0
2018-07-05T01:06:13.792Z,0
2018-07-05T01:07:14.347Z,0
2018-07-05T01:08:14.901Z,0
2018-07-05T01:09:15.457Z,0
2018-07-05T01:10:16.014Z,0
2018-07-05T01:11:16.571Z,0
2018-07-05T01:12:17.124Z,0
2018-07-05T01:13:17.679Z,0
2018-07-05T01:14:18.238Z,0
2018-07-05T01:15:18.801Z,0
2018-07-05T01:16:19.373Z,0
2018-07-05T01:17:19.925Z,0
2018-07-05T01:18:20.477Z,0
2018-07-05T01:19:21.031Z,0
2018-07-05T01:20:21.586Z,0
2018-07-05T01:21:22.144Z,0
2018-07-05T01:22:22.697Z,0
2018-07-05T01:23:23.251Z,0
2018-07-05T01:24:23.809Z,0
2018-07-05T01:25:24.363Z,0
2018-07-05T01:26:24.913Z,0
2018-07-05T01:27:25.472Z,0
2018-07-05T01:28:26.028Z,0
2018-07-05T01:29:26.585Z,0
2018-07-05T01:30:27.147Z,0
2018-07-05T01:31:27.699Z,0
2018-07-05T01:32:28.255Z,0
2018-07-05T01:33:28.814Z,0
2018-07-05T01:34:29.369Z,0
2018-07-05T01:35:29.963Z,0
2018-07-05T01:36:30.487Z,0
2018-07-05T01:37:31.043Z,0
2018-07-05T01:38:31.593Z,0
2018-07-05T01:39:32.148Z,0
2018-07-05T01:40:32.706Z,0
2018-07-05T01:41:33.264Z,0
2018-07-05T01:42:33.820Z,0
2018-07-05T01:43:34.374Z,0
2018-07-05T01:44:34.933Z,0
2018-07-05T01:45:35.486Z,0
2018-07-05T01:46:36.044Z,0
2018-07-05T01:47:36.603Z,0
2018-07-05T01:48:37.151Z,0
2018-07-05T01:49:37.703Z,0
2018-07-05T01:50:38.258Z,0
2018-07-05T01:51:38.809Z,0
2018-07-05T01:52:39.362Z,0
2018-07-05T01:53:39.920Z,0
2018-07-05T01:54:40.476Z,0
2018-07-05T01:55:41.035Z,0
2018-07-05T01:56:41.585Z,0
2018-07-05T01:57:42.142Z,0
2018-07-05T01:58:42.686Z,0
2018-07-05T01:59:43.232Z,0
2018-07-05T02:00:43.785Z,0
2018-07-05T02:01:44.338Z,0
2018-07-05T02:02:44.891Z,0
2018-07-05T02:03:45.442Z,0
2018-07-05T02:04:45.996Z,0
2018-07-05T02:05:46.554Z,0
2018-07-05T02:06:47.103Z,0
2018-07-05T02:07:47.653Z,0
2018-07-05T02:08:48.211Z,0
2018-07-05T02:09:48.764Z,0
2018-07-05T02:10:49.319Z,0
2018-07-05T02:11:49.875Z,0
2018-07-05T02:12:50.429Z,0
2018-07-05T02:13:50.985Z,0
2018-07-05T02:14:51.540Z,0
2018-07-05T02:15:52.096Z,0
2018-07-05T02:16:52.653Z,0
2018-07-05T02:17:53.206Z,0
2018-07-05T02:18:53.785Z,0
2018-07-05T02:19:54.318Z,0
2018-07-05T02:20:54.871Z,0
2018-07-05T02:21:55.427Z,0
2018-07-05T02:22:55.983Z,0
2018-07-05T02:23:56.544Z,0
2018-07-05T02:24:57.094Z,0
2018-07-05T02:25:57.651Z,0
2018-07-05T02:26:58.204Z,0
2018-07-05T02:27:58.765Z,0
2018-07-05T02:28:59.319Z,0
2018-07-05T02:29:59.870Z,0
2018-07-05T02:31:00.425Z,0
2018-07-05T02:32:00.972Z,0
2018-07-05T02:33:01.532Z,0
2018-07-05T02:34:02.082Z,0
2018-07-05T02:35:02.638Z,0
2018-07-05T02:36:03.194Z,0
2018-07-05T02:37:03.741Z,0
2018-07-05T02:38:04.296Z,0
2018-07-05T02:39:04.849Z,0
2018-07-05T02:40:05.395Z,0
2018-07-05T02:41:05.950Z,0
2018-07-05T02:42:06.505Z,0
2018-07-05T02:43:07.064Z,0
2018-07-05T02:44:07.615Z,0
2018-07-05T02:45:08.163Z,0
2018-07-05T02:46:08.716Z,0
2018-07-05T02:47:09.271Z,0
2018-07-05T02:48:09.817Z,0
2018-07-05T02:49:10.365Z,0
2018-07-05T02:50:10.922Z,0
2018-07-05T02:51:11.469Z,0
2018-07-05T02:52:12.020Z,0
2018-07-05T02:53:12.577Z,0
2018-07-05T02:54:13.129Z,0
2018-07-05T02:55:13.687Z,0
2018-07-05T02:56:14.243Z,0
2018-07-05T02:57:14.799Z,0
2018-07-05T02:58:15.360Z,0
2018-07-05T02:59:15.911Z,0
2018-07-05T03:00:16.473Z,0
2018-07-05T03:01:17.026Z,0
2018-07-05T03:02:17.581Z,0
2018-07-05T03:03:18.131Z,0
2018-07-05T03:04:18.685Z,0
2018-07-05T03:05:19.239Z,0
2018-07-05T03:06:19.788Z,0
2018-07-05T03:07:20.347Z,0
2018-07-05T03:08:20.901Z,0
2018-07-05T03:09:21.456Z,0
2018-07-05T03:10:22.034Z,0
2018-07-05T03:11:22.579Z,0
2018-07-05T03:12:23.131Z,0
2018-07-05T03:13:23.691Z,0
2018-07-05T03:14:24.246Z,0
2018-07-05T03:15:24.805Z,0
2018-07-05T03:16:25.362Z,0
2018-07-05T03:17:25.921Z,0
2018-07-05T03:18:26.476Z,0
2018-07-05T03:19:27.035Z,5
2018-07-05T03:20:27.592Z,5
2018-07-05T03:21:28.151Z,5
2018-07-05T03:22:28.707Z,5
2018-07-05T03:23:29.262Z,5
2018-07-05T03:24:29.810Z,5
2018-07-05T03:25:30.366Z,5
2018-07-05T03:26:30.922Z,5
2018-07-05T03:27:31.476Z,5
2018-07-05T03:28:32.034Z,5
2018-07-05T03:29:32.583Z,10
2018-07-05T03:30:33.148Z,10
2018-07-05T03:31:33.707Z,10
2018-07-05T03:32:34.273Z,10
2018-07-05T03:33:34.832Z,10
2018-07-05T03:34:35.388Z,10
2018-07-05T03:35:35.957Z,10
2018-07-05T03:36:36.499Z,10
2018-07-05T03:37:37.059Z,10
2018-07-05T03:38:37.652Z,15
2018-07-05T03:39:38.200Z,15
2018-07-05T03:40:38.758Z,15
2018-07-05T03:41:39.313Z,15
2018-07-05T03:42:39.874Z,15
2018-07-05T03:43:40.435Z,15
2018-07-05T03:44:40.995Z,20
2018-07-05T03:45:41.564Z,20
2018-07-05T03:46:42.120Z,20
2018-07-05T03:47:42.707Z,20
2018-07-05T03:48:43.232Z,20
2018-07-05T03:49:43.794Z,20
2018-07-05T03:50:44.355Z,20
2018-07-05T03:51:44.911Z,20
2018-07-05T03:52:45.471Z,25
2018-07-05T03:53:46.034Z,25
2018-07-05T03:54:46.598Z,25
2018-07-05T03:55:47.157Z,25
2018-07-05T03:56:47.713Z,25
2018-07-05T03:57:48.285Z,25
2018-07-05T03:58:48.832Z,25
2018-07-05T03:59:49.392Z,30
2018-07-05T04:00:49.954Z,30
2018-07-05T04:01:50.511Z,30
2018-07-05T04:02:51.077Z,35
2018-07-05T04:03:51.635Z,35
2018-07-05T04:04:52.194Z,35
2018-07-05T04:05:52.758Z,40
2018-07-05T04:06:53.318Z,40
2018-07-05T04:07:53.883Z,40
2018-07-05T04:08:54.441Z,40
2018-07-05T04:09:54.992Z,40
2018-07-05T04:10:55.553Z,45
2018-07-05T04:11:56.114Z,45
2018-07-05T04:12:56.670Z,50
2018-07-05T04:13:57.224Z,50
2018-07-05T04:14:57.781Z,55
2018-07-05T04:15:58.343Z,60
2018-07-05T04:16:58.899Z,65
2018-07-05T04:17:59.456Z,70
2018-07-05T04:19:00.004Z,75
2018-07-05T04:20:00.557Z,75
2018-07-05T04:21:01.119Z,75
2018-07-05T04:22:01.675Z,75
2018-07-05T04:23:02.231Z,75
2018-07-05T04:24:02.850Z,75
2018-07-05T04:25:03.393Z,75
2018-07-05T04:26:03.916Z,80
2018-07-05T04:27:04.473Z,80
2018-07-05T04:28:05.039Z,85
2018-07-05T04:29:05.592Z,90
2018-07-05T04:30:06.161Z,95
2018-07-05T04:31:06.716Z,95
2018-07-05T04:32:07.279Z,100
2018-07-05T04:33:07.832Z,105
2018-07-05T04:34:08.453Z,110
2018-07-05T04:35:08.967Z,115
2018-07-05T04:36:09.560Z,120
2018-07-05T04:37:10.109Z,130
2018-07-05T04:38:10.676Z,130
2018-07-05T04:39:11.236Z,135
2018-07-05T04:40:11.798Z,145
2018-07-05T04:41:12.355Z,145
2018-07-05T04:42:12.909Z,150
2018-07-05T04:43:13.470Z,150
2018-07-05T04:44:14.055Z,145
2018-07-05T04:45:14.597Z,145
2018-07-05T04:46:15.157Z,145
2018-07-05T04:47:15.735Z,145
2018-07-05T04:48:16.274Z,145
2018-07-05T04:49:16.825Z,145
2018-07-05T04:50:17.457Z,145
2018-07-05T04:51:17.965Z,150
2018-07-05T04:52:18.524Z,160
2018-07-05T04:53:19.089Z,170
2018-07-05T04:54:19.656Z,175
2018-07-05T04:55:20.214Z,180
2018-07-05T04:56:20.764Z,180
2018-07-05T04:57:21.327Z,185
2018-07-05T04:58:21.889Z,185
2018-07-05T04:59:22.450Z,190
2018-07-05T05:00:23.011Z,180
2018-07-05T05:01:23.569Z,180
2018-07-05T05:02:24.146Z,180
2018-07-05T05:03:24.690Z,185
2018-07-05T05:04:25.246Z,190
2018-07-05T05:05:25.808Z,195
2018-07-05T05:06:26.368Z,195
2018-07-05T05:07:26.935Z,200
2018-07-05T05:08:27.491Z,200
2018-07-05T05:09:28.061Z,200
2018-07-05T05:10:28.616Z,205
2018-07-05T05:11:29.176Z,210
2018-07-05T05:12:29.735Z,225
2018-07-05T05:13:30.296Z,230
2018-07-05T05:14:30.854Z,240
2018-07-05T05:15:31.414Z,245
2018-07-05T05:16:31.988Z,250
2018-07-05T05:17:32.542Z,255
2018-07-05T05:18:33.104Z,255
2018-07-05T05:19:33.663Z,260
2018-07-05T05:20:34.223Z,265
2018-07-05T05:21:34.788Z,270
2018-07-05T05:22:35.350Z,275
2018-07-05T05:23:35.931Z,285
2018-07-05T05:24:36.493Z,295
2018-07-05T05:25:37.066Z,310
2018-07-05T05:26:37.638Z,320
2018-07-05T05:27:38.210Z,330
2018-07-05T05:28:38.774Z,340
2018-07-05T05:29:39.330Z,345
2018-07-05T05:30:39.894Z,355
2018-07-05T05:31:40.451Z,365
2018-07-05T05:32:41.013Z,370
2018-07-05T05:33:41.579Z,370
2018-07-05T05:34:42.150Z,370
2018-07-05T05:35:42.714Z,365
2018-07-05T05:36:43.282Z,365
2018-07-05T05:37:43.848Z,365
2018-07-05T05:38:44.416Z,370
2018-07-05T05:39:44.983Z,380
2018-07-05T05:40:45.546Z,385
2018-07-05T05:41:46.108Z,390
2018-07-05T05:42:46.669Z,405
2018-07-05T05:43:47.233Z,405
2018-07-05T05:44:47.802Z,410
2018-07-05T05:45:48.367Z,415
2018-07-05T05:46:48.938Z,420
2018-07-05T05:47:49.533Z,430
2018-07-05T05:48:50.089Z,440
2018-07-05T05:49:50.653Z,455
2018-07-05T05:50:51.221Z,460
2018-07-05T05:51:51.793Z,480
2018-07-05T05:52:52.359Z,500
2018-07-05T05:53:52.925Z,615
2018-07-05T05:54:53.495Z,640
2018-07-05T05:55:54.065Z,645
2018-07-05T05:56:54.633Z,665
2018-07-05T05:57:55.204Z,655
2018-07-05T05:58:55.772Z,650
2018-07-05T05:59:56.376Z,710
2018-07-05T06:00:56.935Z,745
2018-07-05T06:01:57.643Z,735
2018-07-05T06:02:58.107Z,675
2018-07-05T06:03:58.673Z,615
2018-07-05T06:04:59.233Z,575
2018-07-05T06:05:59.797Z,545
2018-07-05T06:07:00.371Z,540
2018-07-05T06:08:00.934Z,525
2018-07-05T06:09:01.506Z,515
2018-07-05T06:10:02.083Z,510
2018-07-05T06:11:02.650Z,520
2018-07-05T06:12:03.218Z,510
2018-07-05T06:13:03.785Z,515
2018-07-05T06:14:04.360Z,530
2018-07-05T06:15:04.930Z,535
2018-07-05T06:16:05.492Z,545
2018-07-05T06:17:06.059Z,565
2018-07-05T06:18:06.631Z,745
2018-07-05T06:19:07.204Z,735
2018-07-05T06:20:07.769Z,715
2018-07-05T06:21:08.340Z,750
2018-07-05T06:22:08.915Z,820
2018-07-05T06:23:09.479Z,810
2018-07-05T06:24:10.042Z,800
2018-07-05T06:25:10.608Z,735
2018-07-05T06:26:11.226Z,690
2018-07-05T06:27:11.798Z,730
2018-07-05T06:28:12.370Z,780
2018-07-05T06:29:12.945Z,770
2018-07-05T06:30:13.516Z,770
2018-07-05T06:31:14.141Z,790
2018-07-05T06:32:14.705Z,785
2018-07-05T06:33:15.269Z,785
2018-07-05T06:34:15.932Z,785
2018-07-05T06:35:16.410Z,790
2018-07-05T06:36:16.982Z,770
2018-07-05T06:37:17.549Z,755
2018-07-05T06:38:18.123Z,755
2018-07-05T06:39:18.698Z,765
2018-07-05T06:40:19.272Z,810
2018-07-05T06:41:19.834Z,825
2018-07-05T06:42:20.407Z,855
2018-07-05T06:43:20.984Z,875
2018-07-05T06:44:21.558Z,910
2018-07-05T06:45:22.128Z,940
2018-07-05T06:46:22.702Z,935
2018-07-05T06:47:23.325Z,955
2018-07-05T06:48:23.848Z,970
2018-07-05T06:49:24.503Z,960
2018-07-05T06:50:24.989Z,960
2018-07-05T06:51:25.566Z,955
2018-07-05T06:52:26.136Z,975
2018-07-05T06:53:26.718Z,1000
2018-07-05T06:54:27.294Z,975
2018-07-05T06:55:27.862Z,905
2018-07-05T06:56:28.444Z,890
2018-07-05T06:57:29.015Z,920
2018-07-05T06:58:29.591Z,1085
2018-07-05T06:59:30.168Z,1130
2018-07-05T07:00:30.748Z,1150
2018-07-05T07:01:31.362Z,1185
2018-07-05T07:02:31.969Z,1125
2018-07-05T07:03:32.545Z,1070
2018-07-05T07:04:33.124Z,1095
2018-07-05T07:05:33.701Z,1075
2018-07-05T07:06:34.281Z,1070
2018-07-05T07:07:34.861Z,1130
2018-07-05T07:08:35.434Z,1155
2018-07-05T07:09:36.013Z,1130
2018-07-05T07:10:36.589Z,1145
2018-07-05T07:11:37.171Z,1120
2018-07-05T07:12:37.749Z,1115
2018-07-05T07:13:38.325Z,1090
2018-07-05T07:14:38.902Z,1105
2018-07-05T07:15:39.479Z,1070
2018-07-05T07:16:40.063Z,1065
2018-07-05T07:17:40.639Z,1055
2018-07-05T07:18:41.215Z,1050
2018-07-05T07:19:41.782Z,1035
2018-07-05T07:20:42.364Z,1050
2018-07-05T07:21:42.940Z,1025
2018-07-05T07:22:43.525Z,1030
2018-07-05T07:23:44.095Z,1040
2018-07-05T07:24:44.677Z,1025
2018-07-05T07:25:45.248Z,1035
2018-07-05T07:26:45.824Z,1080
2018-07-05T07:27:46.399Z,1065
2018-07-05T07:28:46.979Z,1040
2018-07-05T07:29:47.549Z,1000
2018-07-05T07:30:48.128Z,1000
2018-07-05T07:31:48.822Z,1025
2018-07-05T07:32:49.310Z,1020
2018-07-05T07:33:49.855Z,1070
2018-07-05T07:34:50.429Z,1085
2018-07-05T07:35:51.006Z,1085
2018-07-05T07:36:51.597Z,1125
2018-07-05T07:37:52.183Z,1175
2018-07-05T07:38:52.744Z,1200
2018-07-05T07:39:53.322Z,1220
2018-07-05T07:40:53.902Z,1250
2018-07-05T07:41:54.487Z,1250
2018-07-05T07:42:55.057Z,1230
2018-07-05T07:43:55.635Z,1270
2018-07-05T07:44:56.213Z,1305
2018-07-05T07:45:56.789Z,1295
2018-07-05T07:46:57.367Z,1300
2018-07-05T07:47:57.945Z,1275
2018-07-05T07:48:58.520Z,1285
2018-07-05T07:49:59.090Z,1270
2018-07-05T07:50:59.669Z,1300
2018-07-05T07:52:00.244Z,1320
2018-07-05T07:53:00.821Z,1310
2018-07-05T07:54:01.406Z,1320
2018-07-05T07:55:01.978Z,1350
2018-07-05T07:56:02.568Z,1365
2018-07-05T07:57:03.151Z,1375
2018-07-05T07:58:03.722Z,1370
2018-07-05T07:59:04.298Z,1340
2018-07-05T08:00:04.876Z,1295
2018-07-05T08:01:05.452Z,1190
2018-07-05T08:02:06.037Z,1110
2018-07-05T08:03:06.615Z,1040
2018-07-05T08:04:07.190Z,1005
2018-07-05T08:05:07.765Z,1010
2018-07-05T08:06:08.348Z,1025
2018-07-05T08:07:08.923Z,1055
2018-07-05T08:08:09.523Z,1075
2018-07-05T08:09:10.093Z,1110
2018-07-05T08:10:10.658Z,1190
2018-07-05T08:11:11.247Z,1215
2018-07-05T08:12:11.853Z,1500
2018-07-05T08:13:12.454Z,1500
2018-07-05T08:14:13.126Z,1395
2018-07-05T08:15:13.729Z,1315
2018-07-05T08:16:14.303Z,1310
2018-07-05T08:17:14.893Z,1360
2018-07-05T08:18:15.474Z,1300
2018-07-05T08:19:16.058Z,1410
2018-07-05T08:20:16.638Z,1440
2018-07-05T08:21:17.225Z,1435
2018-07-05T08:22:17.808Z,1595
2018-07-05T08:23:18.405Z,1565
2018-07-05T08:24:18.955Z,1530
2018-07-05T08:25:19.537Z,1500
2018-07-05T08:26:20.110Z,1440
2018-07-05T08:27:20.692Z,1465
2018-07-05T08:28:21.276Z,1445
2018-07-05T08:29:21.846Z,1425
2018-07-05T08:30:22.463Z,1345
2018-07-05T08:31:23.054Z,1380
2018-07-05T08:32:23.674Z,1405
2018-07-05T08:33:24.319Z,1370
2018-07-05T08:34:24.962Z,1425
2018-07-05T08:35:25.566Z,1410
2018-07-05T08:36:26.160Z,1425
2018-07-05T08:37:26.748Z,1405
2018-07-05T08:38:27.328Z,1390
2018-07-05T08:39:27.914Z,1570
2018-07-05T08:40:28.497Z,1625
2018-07-05T08:41:29.080Z,1560
2018-07-05T08:42:29.664Z,1450
2018-07-05T08:43:30.234Z,1395
2018-07-05T08:44:30.846Z,1395
2018-07-05T08:45:31.430Z,1240
2018-07-05T08:46:32.005Z,1180
2018-07-05T08:47:32.582Z,1105
2018-07-05T08:48:33.157Z,1000
2018-07-05T08:49:33.731Z,945
2018-07-05T08:50:34.312Z,890
2018-07-05T08:51:34.891Z,845
2018-07-05T08:52:35.467Z,810
2018-07-05T08:53:36.039Z,805
2018-07-05T08:54:36.620Z,800
2018-07-05T08:55:37.196Z,815
2018-07-05T08:56:37.794Z,825
2018-07-05T08:57:38.375Z,840
2018-07-05T08:58:39.009Z,875
2018-07-05T08:59:39.638Z,905
2018-07-05T09:00:40.204Z,940
2018-07-05T09:01:40.791Z,975
2018-07-05T09:02:41.379Z,990
2018-07-05T09:03:41.951Z,1005
2018-07-05T09:04:42.543Z,1010
2018-07-05T09:05:43.126Z,1010
2018-07-05T09:06:43.699Z,1005
2018-07-05T09:07:44.267Z,1000
2018-07-05T09:08:44.846Z,1000
2018-07-05T09:09:45.423Z,1000
2018-07-05T09:10:45.997Z,1030
2018-07-05T09:11:46.629Z,1060
2018-07-05T09:12:47.147Z,1055
2018-07-05T09:13:47.720Z,1100
2018-07-05T09:14:48.296Z,1245
2018-07-05T09:15:48.873Z,1545
2018-07-05T09:16:49.447Z,1685
2018-07-05T09:17:50.187Z,1800
2018-07-05T09:18:50.591Z,1865
2018-07-05T09:19:51.164Z,1875
2018-07-05T09:20:51.748Z,1860
2018-07-05T09:21:52.329Z,1780
2018-07-05T09:22:52.901Z,1685
2018-07-05T09:23:53.493Z,1680
2018-07-05T09:24:54.067Z,1680
2018-07-05T09:25:54.672Z,1630
2018-07-05T09:26:55.251Z,1570
2018-07-05T09:27:55.833Z,1580
2018-07-05T09:28:56.420Z,1615
2018-07-05T09:29:57.006Z,1520
2018-07-05T09:30:57.579Z,1500
2018-07-05T09:31:58.151Z,1490
2018-07-05T09:32:58.725Z,1510
2018-07-05T09:33:59.295Z,1495
2018-07-05T09:34:59.874Z,1520
2018-07-05T09:36:00.444Z,1565
2018-07-05T09:37:01.032Z,1695
2018-07-05T09:38:01.605Z,1675
2018-07-05T09:39:02.190Z,1635
2018-07-05T09:40:02.765Z,1590
2018-07-05T09:41:03.347Z,1500
2018-07-05T09:42:03.914Z,1535
2018-07-05T09:43:04.481Z,1530
2018-07-05T09:44:05.082Z,1575
2018-07-05T09:45:05.656Z,1520
2018-07-05T09:46:06.236Z,1490
2018-07-05T09:47:06.858Z,1435
2018-07-05T09:48:07.384Z,1470
2018-07-05T09:49:07.949Z,1365
2018-07-05T09:50:08.528Z,1305
2018-07-05T09:51:09.100Z,1280
2018-07-05T09:52:09.683Z,1285
2018-07-05T09:53:10.261Z,1345
2018-07-05T09:54:10.836Z,1415
2018-07-05T09:55:11.412Z,1610
2018-07-05T09:56:11.987Z,1705
2018-07-05T09:57:12.575Z,2075
2018-07-05T09:58:13.140Z,2155
2018-07-05T09:59:13.817Z,2135
2018-07-05T10:00:14.317Z,2040
2018-07-05T10:01:14.883Z,1945
2018-07-05T10:02:15.476Z,1790
2018-07-05T10:03:16.051Z,1675
2018-07-05T10:04:16.649Z,1610
2018-07-05T10:05:17.220Z,1620
2018-07-05T10:06:17.803Z,1850
2018-07-05T10:07:18.393Z,2040
2018-07-05T10:08:19.052Z,2115
2018-07-05T10:09:19.638Z,2050
2018-07-05T10:10:20.210Z,1965
2018-07-05T10:11:20.789Z,1995
2018-07-05T10:12:21.428Z,1985
2018-07-05T10:13:22.211Z,2050
2018-07-05T10:14:22.752Z,2040
2018-07-05T10:15:23.317Z,2070
2018-07-05T10:16:23.906Z,1935
2018-07-05T10:17:24.504Z,1880
2018-07-05T10:18:25.162Z,1910
2018-07-05T10:19:25.793Z,1950
2018-07-05T10:20:26.341Z,1885
2018-07-05T10:21:26.918Z,1845
2018-07-05T10:22:27.498Z,1630
2018-07-05T10:23:28.118Z,1725
2018-07-05T10:24:28.661Z,1305
2018-07-05T10:25:29.237Z,1390
2018-07-05T10:26:29.817Z,1510
2018-07-05T10:27:30.394Z,1445
2018-07-05T10:28:30.983Z,1445
2018-07-05T10:29:31.559Z,1900
2018-07-05T10:30:32.134Z,1900
2018-07-05T10:31:32.709Z,1330
2018-07-05T10:32:33.275Z,1180
2018-07-05T10:33:33.857Z,1110
2018-07-05T10:34:34.432Z,1065
2018-07-05T10:35:35.016Z,1040
2018-07-05T10:36:35.598Z,990
2018-07-05T10:37:36.173Z,925
2018-07-05T10:38:36.741Z,850
2018-07-05T10:39:37.322Z,795
2018-07-05T10:40:37.881Z,755
2018-07-05T10:41:38.458Z,735
2018-07-05T10:42:39.038Z,710
2018-07-05T10:43:39.627Z,690
2018-07-05T10:44:40.201Z,660
2018-07-05T10:45:40.770Z,635
2018-07-05T10:46:41.334Z,615
2018-07-05T10:47:41.898Z,605
2018-07-05T10:48:42.470Z,595
2018-07-05T10:49:43.044Z,600
2018-07-05T10:50:43.668Z,600
2018-07-05T10:51:44.190Z,595
2018-07-05T10:52:44.764Z,605
2018-07-05T10:53:45.334Z,615
2018-07-05T10:54:45.913Z,625
2018-07-05T10:55:46.505Z,645
2018-07-05T10:56:47.069Z,670
2018-07-05T10:57:47.635Z,700
2018-07-05T10:58:48.210Z,740
2018-07-05T10:59:48.777Z,770
2018-07-05T11:00:49.352Z,810
2018-07-05T11:01:49.935Z,855
2018-07-05T11:02:50.502Z,905
2018-07-05T11:03:51.077Z,950
2018-07-05T11:04:51.648Z,975
2018-07-05T11:05:52.221Z,1005
2018-07-05T11:06:52.787Z,1030
2018-07-05T11:07:53.361Z,1060
2018-07-05T11:08:53.941Z,1090
2018-07-05T11:09:54.517Z,1135
2018-07-05T11:10:55.086Z,1195
2018-07-05T11:11:55.659Z,1275
2018-07-05T11:12:56.230Z,1330
2018-07-05T11:13:56.798Z,1365
2018-07-05T11:14:57.374Z,1360
2018-07-05T11:15:57.949Z,1385
2018-07-05T11:16:58.513Z,1450
2018-07-05T11:17:59.078Z,1515
2018-07-05T11:18:59.655Z,1645
2018-07-05T11:20:00.226Z,1900
2018-07-05T11:21:00.827Z,2420
2018-07-05T11:22:01.381Z,2230
2018-07-05T11:23:01.969Z,2255
2018-07-05T11:24:02.545Z,2405
2018-07-05T11:25:03.125Z,2170
2018-07-05T11:26:03.693Z,2340
2018-07-05T11:27:04.261Z,1930
2018-07-05T11:28:04.832Z,2240
2018-07-05T11:29:05.410Z,1925
2018-07-05T11:30:06.029Z,2475
2018-07-05T11:31:06.567Z,2055
2018-07-05T11:32:07.144Z,2460
2018-07-05T11:33:07.717Z,1965
2018-07-05T11:34:08.286Z,2130
2018-07-05T11:35:08.866Z,1845
2018-07-05T11:36:09.439Z,1885
2018-07-05T11:37:10.015Z,1560
2018-07-05T11:38:10.593Z,1595
2018-07-05T11:39:11.167Z,1885
2018-07-05T11:40:11.748Z,1920
2018-07-05T11:41:12.350Z,1845
2018-07-05T11:42:12.931Z,2175
2018-07-05T11:43:13.529Z,1800
2018-07-05T11:44:14.100Z,2095
2018-07-05T11:45:14.679Z,1980
2018-07-05T11:46:15.255Z,2225
2018-07-05T11:47:15.831Z,1700
2018-07-05T11:48:16.414Z,2275
2018-07-05T11:49:17.003Z,2390
2018-07-05T11:50:17.575Z,2405
2018-07-05T11:51:18.150Z,2320
2018-07-05T11:52:18.749Z,2265
2018-07-05T11:53:19.324Z,2195
2018-07-05T11:54:19.893Z,1955
2018-07-05T11:55:20.476Z,1575
2018-07-05T11:56:21.065Z,1440
2018-07-05T11:57:21.644Z,1225
2018-07-05T11:58:22.223Z,1125
2018-07-05T11:59:22.796Z,1090
2018-07-05T12:00:23.372Z,1065
2018-07-05T12:01:23.942Z,1075
2018-07-05T12:02:24.536Z,1080
2018-07-05T12:03:25.102Z,1110
2018-07-05T12:04:25.679Z,1120
2018-07-05T12:05:26.251Z,1110
2018-07-05T12:06:26.828Z,1090
2018-07-05T12:07:27.399Z,1050
2018-07-05T12:08:27.971Z,985
2018-07-05T12:09:28.538Z,900
2018-07-05T12:10:29.123Z,845
2018-07-05T12:11:29.694Z,815
2018-07-05T12:12:30.266Z,800
2018-07-05T12:13:30.852Z,810
2018-07-05T12:14:31.427Z,830
2018-07-05T12:15:32.001Z,840
2018-07-05T12:16:32.573Z,945
2018-07-05T12:17:33.139Z,890
2018-07-05T12:18:33.714Z,830
2018-07-05T12:19:34.284Z,825
2018-07-05T12:20:34.860Z,875
2018-07-05T12:21:35.431Z,940
2018-07-05T12:22:36.002Z,1005
2018-07-05T12:23:36.568Z,1070
2018-07-05T12:24:37.142Z,1095
2018-07-05T12:25:37.713Z,1105
2018-07-05T12:26:38.314Z,1160
2018-07-05T12:27:38.889Z,1315
2018-07-05T12:28:39.549Z,1345
2018-07-05T12:29:40.120Z,1495
2018-07-05T12:30:40.691Z,1620
2018-07-05T12:31:41.275Z,1790
2018-07-05T12:32:41.843Z,1630
2018-07-05T12:33:42.412Z,1630
2018-07-05T12:34:42.986Z,1500
2018-07-05T12:35:43.599Z,1395
2018-07-05T12:36:44.131Z,1455
2018-07-05T12:37:44.700Z,1615
2018-07-05T12:38:45.263Z,1805
2018-07-05T12:39:45.831Z,1790
2018-07-05T12:40:46.412Z,2070
2018-07-05T12:41:46.981Z,1965
2018-07-05T12:42:47.557Z,1845
2018-07-05T12:43:48.126Z,1880
2018-07-05T12:44:48.707Z,1850
2018-07-05T12:45:49.290Z,1900
2018-07-05T12:46:49.904Z,1920
2018-07-05T12:47:50.532Z,575
2018-07-05T12:48:51.108Z,2220
2018-07-05T12:49:51.684Z,2020
2018-07-05T12:50:52.256Z,1195
2018-07-05T12:51:52.850Z,1480
2018-07-05T12:52:53.432Z,1570
2018-07-05T12:53:54.011Z,1425
2018-07-05T12:54:54.578Z,1250
2018-07-05T12:55:55.153Z,1180
2018-07-05T12:56:55.745Z,1135
2018-07-05T12:57:56.322Z,1070
2018-07-05T12:58:56.901Z,1040
2018-07-05T12:59:57.475Z,1040
2018-07-05T13:00:58.050Z,1065
2018-07-05T13:01:58.617Z,1115
2018-07-05T13:02:59.188Z,1170
2018-07-05T13:03:59.827Z,1270
2018-07-05T13:05:00.325Z,1420
2018-07-05T13:06:00.902Z,1415
2018-07-05T13:07:01.484Z,1465
2018-07-05T13:08:02.063Z,1735
2018-07-05T13:09:02.626Z,1630
2018-07-05T13:10:03.205Z,1355
2018-07-05T13:11:03.782Z,1250
2018-07-05T13:12:04.354Z,1320
2018-07-05T13:13:04.930Z,1420
2018-07-05T13:14:05.500Z,1435
2018-07-05T13:15:06.078Z,1455
2018-07-05T13:16:06.786Z,1485
2018-07-05T13:17:07.464Z,1655
2018-07-05T13:18:08.118Z,1610
2018-07-05T13:19:08.717Z,1965
2018-07-05T13:20:09.287Z,2365
2018-07-05T13:21:09.863Z,2455
2018-07-05T13:22:10.439Z,2350
2018-07-05T13:23:11.007Z,2190
2018-07-05T13:24:11.576Z,2460
2018-07-05T13:25:12.152Z,2050
2018-07-05T13:26:12.731Z,2165
2018-07-05T13:27:13.315Z,2675
2018-07-05T13:28:13.897Z,2625
2018-07-05T13:29:14.471Z,2130
2018-07-05T13:30:15.048Z,1670
2018-07-05T13:31:15.630Z,1525
2018-07-05T13:32:16.214Z,1460
2018-07-05T13:33:16.784Z,1430
2018-07-05T13:34:17.359Z,1450
2018-07-05T13:35:17.942Z,1630
2018-07-05T13:36:18.524Z,1315
2018-07-05T13:37:19.094Z,2065
2018-07-05T13:38:19.671Z,2315
2018-07-05T13:39:20.238Z,2125
2018-07-05T13:40:20.825Z,1605
2018-07-05T13:41:21.392Z,1835
2018-07-05T13:42:21.962Z,2540
2018-07-05T13:43:22.543Z,2535
2018-07-05T13:44:23.113Z,2470
2018-07-05T13:45:23.711Z,2320
2018-07-05T13:46:24.257Z,2015
2018-07-05T13:47:24.835Z,1265
2018-07-05T13:48:25.409Z,1215
2018-07-05T13:49:26.009Z,1070
2018-07-05T13:50:26.587Z,1220
2018-07-05T13:51:27.158Z,985
2018-07-05T13:52:27.735Z,955
2018-07-05T13:53:28.311Z,940
2018-07-05T13:54:28.887Z,1035
2018-07-05T13:55:29.466Z,1750
2018-07-05T13:56:30.040Z,1660
2018-07-05T13:57:30.620Z,1545
2018-07-05T13:58:31.193Z,1570